Terminal Aerodrome Forecast
Issued by NWS

Home | Current Version | Previous Version | Text Only | Print | Product List | Glossary On
Versions: 1 2 3 4 5 6 7 8 9 10 11 12 13 14 15 16 17 18 19
897
FTUS44 KLZK 300535
TAFLLQ
TAF
KLLQ 300535Z 3006/3106 00000KT 5SM BR SKC
     FM300900 00000KT 2SM BR SKC
      TEMPO 3010/3014 1/2SM FG SCT005
     FM301500 VRB04KT P6SM SCT250
     FM302100 16005KT P6SM SCT050 BKN250=

USA.gov is the U.S. government's official web portal to all federal, state and local government web resources and services.